Flying Club and Community

Welcome to Pacific Coast Flyers

Welcome to the online home of Pacific Coast Flyers. We are the #1 flying club in San Diego County, operating out of several airports in the San Diego area. It is our mission to provide a safe positive flying experience as well as excellent value for our members.

Pacific Coast Flyers - North County Flying Club

At Pacific Coast Flyers we provide much more than just aircraft rental. With safety events, club parties and barbecues, fly-in events and much more, you’ll see why we prefer to be called an aviation community instead of just your average “flying club”!

Pacific Coast Flyers - North County Flying Club

  • 24/7 Fleet Access
  • Well Equipped Fleet
  • Online Maint Records
  • Online Scheduling
  • Online Payments
  • Low Monthly Dues
  • No Block Deposits
  • Low Wet Rates
  • Diverse Fleet
  • Large Training Library

Local METARs

Palomar - KCRQ
2014/04/21 11:53 KCRQ 211153Z AUTO 00000KT 5SM BR OVC004 14/13 A3001 RMK AO2 SLP161 T01440133 10161 20144 56009

Oceanside - KOKB
2014/04/21 11:52 KOKB 211152Z AUTO 00000KT 7SM OVC008 15/13 A3001 RMK AO2 SLP162 T01500133 10161 20150 56008

Ramona - KRNM
2014/04/21 11:53 KRNM 211153Z AUTO 00000KT 9SM CLR 08/06 A3002 RMK AO2 SLP158 T00780061 10139 20078 TSNO $

Montgomery - KMYF
2014/04/21 11:53 KMYF 211153Z AUTO 04003KT 4SM BR OVC004 14/13 A3002 RMK AO2 SLP163 T01440133 10156 20144 56009 TSNO

Gillespie - KSEE
2014/04/21 11:55 KSEE 211155Z AUTO 00000KT 5SM BR OVC004 13/13 A3004 RMK AO2

Brown - KSDM
2014/04/21 11:53 KSDM 211153Z AUTO 00000KT 1 3/4SM BR OVC002 14/13 A3002 RMK AO2 SLP162 T01390128 10150 20133 56005

PCF Weather Station

 

 none
Featured Aircraft

N8366X - 1961 Cessna C-172

Location: MC CLELLAN-PALOMAR
Equipment: DME, GPS, Marker Beacon, 4-place intercom
Information: IFR GPS, Dual NAV/...

N8595M - 1962 Beech D95A

Location: MC CLELLAN-PALOMAR
Equipment: GPS, WAAS, Auto Pilot, Marker Beacon, HSI, TCAS, Glass Cockpit, 4-place intercom
Information: Great avionics and...

N6051Q - 1965 Mooney M20

Location: MC CLELLAN-PALOMAR
Equipment: DME, GPS, WAAS, Marker Beacon, TCAS, Glass Cockpit, 4-place intercom
Information: Aspen PFD/MFD

N8451M - 1970 Cessna C-150

Location: MC CLELLAN-PALOMAR
Equipment: DME, GPS, WAAS, Marker Beacon, TCAS, STOL Equipped, 2-place intercom
Information: Aerobatic

See our Entire Fleet

Instructor Spotlight

85659
Jeffrey White
Educator with 30 years flight experience. Patient and knowledgeable approa...

Learn to fly with Pacific Coast Flyers

Contact Pacific Coast Flyers TODAY and get started flying with the #1 flying club in San Diego.
Call 877-PC-FLYER (877-723-5937) or click HERE.

Exclusive Promotion from AirPooler